createdAt,value
2022-11-29T00:00:15.992Z,93621.40
2022-11-29T00:01:14.529Z,93622.38
2022-11-29T00:01:47.879Z,93625.60
2022-11-29T00:02:21.547Z,93620.72
2022-11-29T00:02:55.630Z,93621.43
2022-11-29T00:03:30.177Z,93622.40
2022-11-29T00:04:04.420Z,93623.18
2022-11-29T00:04:38.101Z,93621.87
2022-11-29T00:05:11.617Z,93623.06
2022-11-29T00:05:46.377Z,93624.50
2022-11-29T00:06:23.731Z,93620.94
2022-11-29T00:06:57.291Z,93624.09
2022-11-29T00:07:30.751Z,93623.58
2022-11-29T00:08:04.388Z,93623.42
2022-11-29T00:08:37.732Z,93627.69
2022-11-29T00:09:13.694Z,93624.09
2022-11-29T00:09:47.134Z,93626.55
2022-11-29T00:10:21.018Z,93625.70
2022-11-29T00:10:54.441Z,93626.34
2022-11-29T00:11:49.167Z,93625.86
2022-11-29T00:12:22.603Z,93624.86
2022-11-29T00:12:55.839Z,93626.41
2022-11-29T00:13:29.368Z,93626.80
2022-11-29T00:14:03.422Z,93624.48
2022-11-29T00:14:37.003Z,93624.80
2022-11-29T00:15:10.410Z,93624.61
2022-11-29T00:15:43.856Z,93623.48
2022-11-29T00:16:17.484Z,93622.67
2022-11-29T00:16:53.745Z,93625.07
2022-11-29T00:17:27.343Z,93622.36
2022-11-29T00:18:00.585Z,93619.97
2022-11-29T00:18:34.485Z,93623.91
2022-11-29T00:19:09.184Z,93622.66
2022-11-29T00:19:42.885Z,93620.70
2022-11-29T00:20:16.206Z,93620.91
2022-11-29T00:20:49.728Z,93623.86
2022-11-29T00:21:23.127Z,93621.69
2022-11-29T00:21:56.725Z,93623.14
2022-11-29T00:22:30.439Z,93618.23
2022-11-29T00:23:03.842Z,93623.72
2022-11-29T00:23:37.094Z,93617.60
2022-11-29T00:24:10.657Z,93621.29
2022-11-29T00:24:44.406Z,93620.25
2022-11-29T00:25:18.125Z,93617.27
2022-11-29T00:25:52.117Z,93619.59
2022-11-29T00:26:26.013Z,93619.15
2022-11-29T00:27:00.731Z,93617.01
2022-11-29T00:27:34.102Z,93619.23
2022-11-29T00:28:07.404Z,93617.10
2022-11-29T00:28:42.755Z,93622.36
2022-11-29T00:29:16.133Z,93619.25
2022-11-29T00:29:49.368Z,93618.45
2022-11-29T00:30:23.102Z,93621.05
2022-11-29T00:30:57.038Z,93618.05
2022-11-29T00:31:32.817Z,93621.89
2022-11-29T00:32:06.191Z,93622.02
2022-11-29T00:32:39.510Z,93621.93
2022-11-29T00:33:12.843Z,93622.86
2022-11-29T00:33:50.307Z,93620.39
2022-11-29T00:34:23.678Z,93621.55
2022-11-29T00:34:59.501Z,93619.52
2022-11-29T00:35:33.240Z,93622.11
2022-11-29T00:36:07.024Z,93620.98
2022-11-29T00:36:41.286Z,93623.39
2022-11-29T00:37:15.787Z,93619.35
2022-11-29T00:37:49.053Z,93623.26
2022-11-29T00:38:22.431Z,93623.52
2022-11-29T00:38:56.036Z,93622.22
2022-11-29T00:39:29.403Z,93621.26
2022-11-29T00:40:04.073Z,93621.85
2022-11-29T00:40:37.488Z,93623.20
2022-11-29T00:41:12.075Z,93623.24
2022-11-29T00:41:45.954Z,93625.91
2022-11-29T00:42:20.948Z,93624.04
2022-11-29T00:42:54.881Z,93622.36
2022-11-29T00:43:28.462Z,93622.69
2022-11-29T00:44:01.950Z,93627.67
2022-11-29T00:44:35.379Z,93626.42
2022-11-29T00:45:09.718Z,93623.15
2022-11-29T00:45:43.729Z,93620.08
2022-11-29T00:46:17.434Z,93622.77
2022-11-29T00:46:50.843Z,93622.98
2022-11-29T00:47:24.493Z,93622.90
2022-11-29T00:47:57.994Z,93624.42
2022-11-29T00:48:31.342Z,93618.41
2022-11-29T00:49:05.085Z,93619.00
2022-11-29T00:49:38.417Z,93623.67
2022-11-29T00:50:11.988Z,93618.59
2022-11-29T00:50:45.485Z,93618.74
2022-11-29T00:51:19.600Z,93619.07
2022-11-29T00:51:53.213Z,93618.27
2022-11-29T00:52:26.558Z,93617.03
2022-11-29T00:53:00.010Z,93620.02
2022-11-29T00:53:35.283Z,93620.23
2022-11-29T00:54:08.986Z,93606.08
2022-11-29T00:54:42.608Z,93622.42
2022-11-29T00:55:17.957Z,93619.11
2022-11-29T00:55:52.964Z,93621.27
2022-11-29T00:56:26.383Z,93623.19
2022-11-29T00:56:59.826Z,93619.11
2022-11-29T00:57:33.082Z,93623.30
2022-11-29T00:58:06.646Z,93621.42
2022-11-29T00:58:40.238Z,93622.55
2022-11-29T00:59:13.503Z,93625.70
2022-11-29T00:59:46.892Z,93627.93
2022-11-29T01:00:20.763Z,93625.50
2022-11-29T01:00:54.887Z,93629.33
2022-11-29T01:01:28.641Z,93625.45
2022-11-29T01:02:02.274Z,93625.90
2022-11-29T01:02:35.748Z,93625.86
2022-11-29T01:03:09.510Z,93628.93
2022-11-29T01:03:43.301Z,93617.36
2022-11-29T01:04:17.048Z,93628.16
2022-11-29T01:04:50.265Z,93630.06
2022-11-29T01:05:24.270Z,93630.34
2022-11-29T01:06:06.069Z,93630.73
2022-11-29T01:06:39.692Z,93629.23
2022-11-29T01:07:13.333Z,93632.04
2022-11-29T01:07:46.828Z,93632.64
2022-11-29T01:08:20.292Z,93632.92
2022-11-29T01:08:54.223Z,93629.09
2022-11-29T01:09:27.481Z,93630.32
2022-11-29T01:10:01.121Z,93631.30
2022-11-29T01:10:34.723Z,93629.85
2022-11-29T01:11:16.023Z,93627.22
2022-11-29T01:11:50.145Z,93628.81
2022-11-29T01:12:23.451Z,93631.20
2022-11-29T01:12:56.651Z,93632.67
2022-11-29T01:13:30.122Z,93634.50
2022-11-29T01:14:04.362Z,93631.77
2022-11-29T01:14:37.720Z,93633.32
2022-11-29T01:15:11.473Z,93631.16
2022-11-29T01:15:45.298Z,93634.35
2022-11-29T01:16:19.150Z,93634.69
2022-11-29T01:16:52.555Z,93632.92
2022-11-29T01:17:29.229Z,93633.48
2022-11-29T01:18:02.634Z,93636.48
2022-11-29T01:18:37.219Z,93637.97
2022-11-29T01:19:12.855Z,93637.36
2022-11-29T01:19:50.649Z,93635.92
2022-11-29T01:20:24.758Z,93635.40
2022-11-29T01:21:09.763Z,93635.61
2022-11-29T01:21:42.994Z,93635.95
2022-11-29T01:22:16.358Z,93633.99
2022-11-29T01:22:49.791Z,93636.16
2022-11-29T01:23:23.154Z,93632.24
2022-11-29T01:23:57.027Z,93633.92
2022-11-29T01:24:31.359Z,93633.05
2022-11-29T01:25:07.331Z,93637.36
2022-11-29T01:25:41.326Z,93633.25
2022-11-29T01:26:18.574Z,93635.49
2022-11-29T01:26:52.526Z,93634.41
2022-11-29T01:27:26.322Z,93632.91
2022-11-29T01:28:00.707Z,93634.08
2022-11-29T01:28:35.015Z,93632.87
2022-11-29T01:29:08.428Z,93636.30
2022-11-29T01:29:42.006Z,93635.87
2022-11-29T01:30:16.036Z,93633.59
2022-11-29T01:30:49.485Z,93635.86
2022-11-29T01:31:28.646Z,93636.05
2022-11-29T01:32:02.243Z,93635.19
2022-11-29T01:32:39.076Z,93634.23
2022-11-29T01:33:12.483Z,93638.63
2022-11-29T01:33:46.032Z,93637.71
2022-11-29T01:34:19.357Z,93638.20
2022-11-29T01:34:52.608Z,93636.16
2022-11-29T01:35:25.899Z,93637.98
2022-11-29T01:35:59.380Z,93635.14
2022-11-29T01:36:33.303Z,93638.33
2022-11-29T01:37:06.737Z,93636.02
2022-11-29T01:37:40.230Z,93639.46
2022-11-29T01:38:13.605Z,93635.09
2022-11-29T01:38:46.826Z,93637.80
2022-11-29T01:39:20.041Z,93637.41
2022-11-29T01:39:53.286Z,93639.67
2022-11-29T01:40:26.575Z,93631.84
2022-11-29T01:41:07.132Z,93637.46
2022-11-29T01:41:40.276Z,93636.09
2022-11-29T01:42:14.358Z,93636.18
2022-11-29T01:42:47.864Z,93637.29
2022-11-29T01:43:21.555Z,93635.33
2022-11-29T01:44:26.973Z,93638.05
2022-11-29T01:45:04.882Z,93631.89
2022-11-29T01:45:40.602Z,93632.17
2022-11-29T01:46:13.857Z,93633.89
2022-11-29T01:46:49.348Z,93634.26
2022-11-29T01:47:23.999Z,93635.45
2022-11-29T01:47:58.129Z,93635.73
2022-11-29T01:48:32.886Z,93633.27
2022-11-29T01:49:14.159Z,93633.88
2022-11-29T01:49:49.483Z,93632.77
2022-11-29T01:50:23.038Z,93632.80
2022-11-29T01:51:00.910Z,93631.53
2022-11-29T01:51:36.159Z,93637.67
2022-11-29T01:52:19.804Z,93636.32
2022-11-29T01:52:53.553Z,93632.29
2022-11-29T01:53:28.107Z,93632.46
2022-11-29T01:54:02.282Z,93633.77
2022-11-29T01:54:40.258Z,93632.36
2022-11-29T01:55:14.533Z,93632.23
2022-11-29T01:55:53.639Z,93632.55
2022-11-29T01:56:29.493Z,93631.69
2022-11-29T01:57:05.740Z,93630.21
2022-11-29T01:57:41.218Z,93630.81
2022-11-29T01:58:15.533Z,93630.41
2022-11-29T01:58:49.191Z,93629.30
2022-11-29T01:59:25.903Z,93629.29
2022-11-29T02:00:07.622Z,93628.56
2022-11-29T02:00:46.605Z,93632.10
2022-11-29T02:01:20.207Z,93628.75
2022-11-29T02:02:00.696Z,93632.07
2022-11-29T02:02:42.876Z,93633.55
2022-11-29T02:03:18.113Z,93633.71
2022-11-29T02:03:51.379Z,93630.56
2022-11-29T02:04:24.644Z,93631.16
2022-11-29T02:04:59.624Z,93629.34
2022-11-29T02:05:33.498Z,93634.05
2022-11-29T02:06:08.141Z,93634.02
2022-11-29T02:06:42.097Z,93633.23
2022-11-29T02:07:15.842Z,93631.02
2022-11-29T02:07:52.783Z,93634.02
2022-11-29T02:08:33.663Z,93633.58
2022-11-29T02:09:19.901Z,93634.45
2022-11-29T02:09:53.102Z,93632.41
2022-11-29T02:10:41.047Z,93633.73
2022-11-29T02:11:29.771Z,93633.41
2022-11-29T02:12:21.792Z,93629.38
2022-11-29T02:13:18.007Z,93629.95
2022-11-29T02:13:56.863Z,93630.55
2022-11-29T02:14:57.699Z,93631.27
2022-11-29T02:15:43.699Z,93631.11
2022-11-29T02:16:43.642Z,93629.26
2022-11-29T02:18:07.745Z,93630.25
2022-11-29T02:18:47.300Z,93629.34
2022-11-29T02:19:38.010Z,93627.95
2022-11-29T02:20:23.213Z,93628.14
2022-11-29T02:21:05.528Z,93624.47
2022-11-29T02:21:47.528Z,93624.47
2022-11-29T02:22:58.498Z,93626.54
2022-11-29T02:23:43.618Z,93625.27
2022-11-29T02:24:25.750Z,93623.80
2022-11-29T02:25:07.589Z,93624.80
2022-11-29T02:26:01.852Z,93625.27
2022-11-29T02:26:35.388Z,93627.27
2022-11-29T02:27:17.183Z,93626.96
2022-11-29T02:28:30.288Z,93628.00
2022-11-29T02:29:21.923Z,93627.41
2022-11-29T02:30:09.682Z,93627.41
2022-11-29T02:30:45.966Z,93628.80
2022-11-29T02:31:47.026Z,93627.44
2022-11-29T02:32:41.500Z,93628.56
2022-11-29T02:33:39.307Z,93628.77
2022-11-29T02:34:18.522Z,93628.63
2022-11-29T02:35:18.700Z,93630.33
2022-11-29T02:36:00.929Z,93632.32
2022-11-29T02:36:51.485Z,93632.13
2022-11-29T02:37:34.433Z,93634.02
2022-11-29T02:38:21.972Z,93630.58
2022-11-29T02:39:14.434Z,93635.13
2022-11-29T02:39:53.505Z,93634.05
2022-11-29T02:40:45.204Z,93634.56
2022-11-29T02:41:24.347Z,93634.63
2022-11-29T02:42:18.838Z,93633.89
2022-11-29T02:43:08.028Z,93636.27
2022-11-29T02:43:58.078Z,93635.11
2022-11-29T02:45:04.008Z,93637.06
2022-11-29T02:45:43.173Z,93637.30
2022-11-29T02:46:16.727Z,93638.75
2022-11-29T02:46:49.956Z,93638.02
2022-11-29T02:47:35.119Z,93640.25
2022-11-29T02:48:29.789Z,93639.38
2022-11-29T02:50:56.371Z,93639.78
2022-11-29T02:51:58.058Z,93644.45
2022-11-29T02:53:00.314Z,93644.52
2022-11-29T02:53:53.413Z,93646.52
2022-11-29T02:54:35.722Z,93649.31
2022-11-29T02:55:17.749Z,93647.63
2022-11-29T02:56:27.555Z,93646.39
2022-11-29T02:57:24.578Z,93647.44
2022-11-29T02:58:40.956Z,93647.31
2022-11-29T02:59:39.249Z,93647.67
2022-11-29T03:00:23.409Z,93647.36
2022-11-29T03:01:38.718Z,93646.97
2022-11-29T03:02:21.560Z,93638.59
2022-11-29T03:03:10.839Z,93647.95
2022-11-29T03:03:53.598Z,93648.55
2022-11-29T03:04:41.202Z,93647.52
2022-11-29T03:05:35.041Z,93654.81
2022-11-29T03:06:36.894Z,93653.58
2022-11-29T03:07:28.730Z,93654.94
2022-11-29T03:08:34.320Z,93655.45
2022-11-29T03:09:33.323Z,93656.30
2022-11-29T03:10:31.237Z,93652.39
2022-11-29T03:11:13.576Z,93657.80
2022-11-29T03:12:24.564Z,93658.20
2022-11-29T03:12:59.339Z,93657.22
2022-11-29T03:14:03.505Z,93658.63
2022-11-29T03:14:45.623Z,93657.85
2022-11-29T03:15:47.793Z,93658.14
2022-11-29T03:16:39.707Z,93659.27
2022-11-29T03:17:27.833Z,93660.35
2022-11-29T03:18:10.290Z,93661.71
2022-11-29T03:19:06.054Z,93660.80
2022-11-29T03:20:14.542Z,93660.29
2022-11-29T03:21:31.695Z,93662.63
2022-11-29T03:22:05.334Z,93660.90
2022-11-29T03:23:00.062Z,93663.50
2022-11-29T03:23:43.588Z,93663.79
2022-11-29T03:24:28.356Z,93664.55
2022-11-29T03:25:05.539Z,93669.16
2022-11-29T03:26:05.131Z,93665.94
2022-11-29T03:26:51.739Z,93668.46
2022-11-29T03:27:52.710Z,93665.62
2022-11-29T03:28:48.559Z,93667.80
2022-11-29T03:29:30.178Z,93663.77
2022-11-29T03:30:07.316Z,93667.37
2022-11-29T03:30:46.240Z,93670.69
2022-11-29T03:31:29.987Z,93671.23
2022-11-29T03:32:15.933Z,93669.31
2022-11-29T03:32:52.012Z,93667.77
2022-11-29T03:33:43.871Z,93668.09
2022-11-29T03:34:19.964Z,93676.67
2022-11-29T03:35:05.672Z,93673.17
2022-11-29T03:36:02.151Z,93672.83
2022-11-29T03:36:59.384Z,93672.10
2022-11-29T03:37:55.687Z,93672.78
2022-11-29T03:38:46.485Z,93671.58
2022-11-29T03:39:49.887Z,93675.02
2022-11-29T03:40:49.041Z,93673.86
2022-11-29T03:41:40.816Z,93671.48
2022-11-29T03:42:39.929Z,93674.48
2022-11-29T03:43:37.020Z,93671.98
2022-11-29T03:44:16.425Z,93674.26
2022-11-29T03:44:52.887Z,93673.54
2022-11-29T03:45:36.691Z,93675.94
2022-11-29T03:46:21.757Z,93676.86
2022-11-29T03:47:02.033Z,93675.63
2022-11-29T03:48:20.110Z,93676.58
2022-11-29T03:49:03.863Z,93675.18
2022-11-29T03:49:52.861Z,93676.54
2022-11-29T03:50:34.003Z,93673.30
2022-11-29T03:51:17.820Z,93673.55
2022-11-29T03:52:20.066Z,93677.26
2022-11-29T03:53:28.445Z,93674.15
2022-11-29T03:54:11.123Z,93679.77
2022-11-29T03:55:09.305Z,93679.57
2022-11-29T03:55:53.902Z,93678.27
2022-11-29T03:56:32.940Z,93675.66
2022-11-29T03:57:07.249Z,93682.48
2022-11-29T03:57:54.078Z,93681.40
2022-11-29T03:58:32.765Z,93683.63
2022-11-29T03:59:22.477Z,93683.48
2022-11-29T04:00:14.117Z,93685.83
2022-11-29T04:00:47.433Z,93682.75
2022-11-29T04:01:48.595Z,93683.15
2022-11-29T04:02:46.273Z,93684.15
2022-11-29T04:03:47.216Z,93682.88
2022-11-29T04:04:39.663Z,93681.16
2022-11-29T04:05:44.172Z,93681.71
2022-11-29T04:06:42.264Z,93682.72
2022-11-29T04:07:37.535Z,93683.87
2022-11-29T04:08:21.213Z,93684.43
2022-11-29T04:09:42.161Z,93681.96
2022-11-29T04:10:27.343Z,93683.44
2022-11-29T04:11:16.215Z,93683.38
2022-11-29T04:12:19.909Z,93681.04
2022-11-29T04:13:07.444Z,93684.00
2022-11-29T04:14:02.285Z,93683.11
2022-11-29T04:15:19.841Z,93683.91
2022-11-29T04:15:53.281Z,93685.69
2022-11-29T04:16:39.304Z,93683.80
2022-11-29T04:17:32.778Z,93687.41
2022-11-29T04:18:14.819Z,93685.98
2022-11-29T04:19:10.153Z,93685.95
2022-11-29T04:20:23.592Z,93687.23
2022-11-29T04:21:27.589Z,93686.15
2022-11-29T04:22:25.908Z,93686.98
2022-11-29T04:23:20.564Z,93688.59
2022-11-29T04:24:15.216Z,93687.14
2022-11-29T04:24:48.455Z,93684.31
2022-11-29T04:25:40.922Z,93684.80
2022-11-29T04:26:54.024Z,93683.77
2022-11-29T04:27:48.829Z,93687.75
2022-11-29T04:28:57.354Z,93687.70
2022-11-29T04:29:39.773Z,93686.63
2022-11-29T04:30:22.857Z,93684.08
2022-11-29T04:31:33.427Z,93690.86
2022-11-29T04:32:34.686Z,93688.50
2022-11-29T04:33:16.801Z,93687.77
2022-11-29T04:34:05.149Z,93692.39
2022-11-29T04:34:48.619Z,93692.06
2022-11-29T04:35:24.634Z,93694.58
2022-11-29T04:36:33.028Z,93692.82
2022-11-29T04:37:28.027Z,93694.23
2022-11-29T04:38:31.237Z,93692.59
2022-11-29T04:39:42.098Z,93694.69
2022-11-29T04:41:12.462Z,93695.41
2022-11-29T04:41:53.018Z,93695.79
2022-11-29T04:42:38.399Z,93699.23
2022-11-29T04:43:39.747Z,93696.89
2022-11-29T04:44:36.368Z,93701.15
2022-11-29T04:45:29.989Z,93699.28
2022-11-29T04:46:24.104Z,93700.88
2022-11-29T04:47:21.362Z,93701.67
2022-11-29T04:47:54.612Z,93703.94
2022-11-29T04:48:49.923Z,93705.67
2022-11-29T04:49:34.384Z,93702.40
2022-11-29T04:50:26.338Z,93703.45
2022-11-29T04:51:12.539Z,93702.84
2022-11-29T04:52:07.677Z,93704.27
2022-11-29T04:53:09.746Z,93707.32
2022-11-29T04:54:13.768Z,93705.87
2022-11-29T04:55:17.618Z,93707.98
2022-11-29T04:56:33.787Z,93708.71
2022-11-29T04:57:22.223Z,93713.25
2022-11-29T04:58:04.469Z,93713.69
2022-11-29T04:59:18.120Z,93713.30
2022-11-29T05:00:35.124Z,93714.05
2022-11-29T05:01:11.226Z,93716.48
2022-11-29T05:01:58.008Z,93716.52
2022-11-29T05:02:41.361Z,93714.70
2022-11-29T05:03:25.691Z,93715.14
2022-11-29T05:04:22.054Z,93717.33
2022-11-29T05:05:23.062Z,93714.30
2022-11-29T05:06:10.897Z,93717.96
2022-11-29T05:07:02.804Z,93719.63
2022-11-29T05:07:44.883Z,93717.59
2022-11-29T05:08:46.844Z,93721.31
2022-11-29T05:09:44.514Z,93720.71
2022-11-29T05:10:43.836Z,93720.63
2022-11-29T05:11:53.684Z,93719.71
2022-11-29T05:12:43.412Z,93722.06
2022-11-29T05:13:40.183Z,93720.70
2022-11-29T05:14:38.095Z,93722.98
2022-11-29T05:15:29.870Z,93726.09
2022-11-29T05:16:23.655Z,93722.02
2022-11-29T05:17:27.426Z,93721.83
2022-11-29T05:18:30.153Z,93722.83
2022-11-29T05:19:25.339Z,93724.20
2022-11-29T05:20:14.780Z,93725.02
2022-11-29T05:21:07.452Z,93722.91
2022-11-29T05:21:52.545Z,93723.95
2022-11-29T05:23:02.006Z,93724.71
2022-11-29T05:23:56.789Z,93728.19
2022-11-29T05:24:48.252Z,93727.02
2022-11-29T05:25:58.392Z,93727.46
2022-11-29T05:26:34.098Z,93727.66
2022-11-29T05:27:42.830Z,93728.02
2022-11-29T05:28:58.915Z,93727.83
2022-11-29T05:29:46.483Z,93730.24
2022-11-29T05:30:22.372Z,93729.34
2022-11-29T05:31:23.345Z,93727.86
2022-11-29T05:32:16.328Z,93731.49
2022-11-29T05:32:52.761Z,93730.52
2022-11-29T05:33:44.424Z,93729.15
2022-11-29T05:34:42.665Z,93735.35
2022-11-29T05:35:42.770Z,93730.63
2022-11-29T05:36:32.910Z,93732.13
2022-11-29T05:37:21.565Z,93729.96
2022-11-29T05:38:09.739Z,93731.71
2022-11-29T05:38:55.149Z,93731.32
2022-11-29T05:39:37.289Z,93733.71
2022-11-29T05:40:48.088Z,93726.73
2022-11-29T05:41:51.736Z,93725.07
2022-11-29T05:42:49.517Z,93730.00
2022-11-29T05:43:47.876Z,93727.40
2022-11-29T05:44:48.032Z,93726.94
2022-11-29T05:45:39.276Z,93726.29
2022-11-29T05:46:44.503Z,93726.16
2022-11-29T05:47:39.190Z,93725.36
2022-11-29T05:48:35.973Z,93725.90
2022-11-29T05:49:34.443Z,93727.20
2022-11-29T05:50:10.967Z,93726.68
2022-11-29T05:50:56.339Z,93726.73
2022-11-29T05:51:29.738Z,93722.52
2022-11-29T05:52:21.865Z,93723.29
2022-11-29T05:53:11.743Z,93725.24
2022-11-29T05:54:15.723Z,93722.13
2022-11-29T05:55:10.678Z,93723.56
2022-11-29T05:56:02.814Z,93723.41
2022-11-29T05:57:08.345Z,93725.81
2022-11-29T05:57:55.206Z,93725.89
2022-11-29T05:58:53.084Z,93726.52
2022-11-29T05:59:31.122Z,93726.92
2022-11-29T06:00:07.757Z,93725.93
2022-11-29T06:01:28.132Z,93730.36
2022-11-29T06:02:24.607Z,93730.84
2022-11-29T06:03:20.376Z,93729.85
2022-11-29T06:04:23.072Z,93733.47
2022-11-29T06:05:13.487Z,93734.64
2022-11-29T06:05:54.854Z,93733.35
2022-11-29T06:06:45.061Z,93733.88
2022-11-29T06:07:21.979Z,93733.50
2022-11-29T06:08:08.703Z,93735.39
2022-11-29T06:09:08.742Z,93736.51
2022-11-29T06:09:49.596Z,93735.98
2022-11-29T06:10:32.994Z,93735.91
2022-11-29T06:11:16.029Z,93740.83
2022-11-29T06:12:05.935Z,93740.73
2022-11-29T06:12:42.810Z,93741.49
2022-11-29T06:13:43.082Z,93738.58
2022-11-29T06:14:22.876Z,93743.89
2022-11-29T06:15:11.947Z,93744.01
2022-11-29T06:16:24.164Z,93742.58
2022-11-29T06:17:02.060Z,93745.52
2022-11-29T06:17:46.958Z,93745.88
2022-11-29T06:18:47.584Z,93747.00
2022-11-29T06:19:50.268Z,93745.05
2022-11-29T06:20:35.462Z,93745.92
2022-11-29T06:21:23.513Z,93742.50
2022-11-29T06:22:29.707Z,93746.41
2022-11-29T06:23:25.260Z,93745.85
2022-11-29T06:24:27.852Z,93744.65
2022-11-29T06:25:17.741Z,93746.05
2022-11-29T06:26:30.098Z,93746.97
2022-11-29T06:27:09.902Z,93746.73
2022-11-29T06:28:07.896Z,93749.36
2022-11-29T06:28:55.628Z,93746.37
2022-11-29T06:29:33.158Z,93746.45
2022-11-29T06:30:13.573Z,93747.84
2022-11-29T06:30:53.565Z,93746.34
2022-11-29T06:31:38.551Z,93749.13
2022-11-29T06:32:29.884Z,93745.79
2022-11-29T06:33:27.486Z,93747.14
2022-11-29T06:34:27.602Z,93749.56
2022-11-29T06:35:12.413Z,93756.66
2022-11-29T06:35:51.457Z,93755.96
2022-11-29T06:36:47.858Z,93754.36
2022-11-29T06:37:32.013Z,93756.03
2022-11-29T06:38:17.105Z,93753.72
2022-11-29T06:38:50.644Z,93758.21
2022-11-29T06:39:24.245Z,93755.34
2022-11-29T06:39:57.681Z,93758.78
2022-11-29T06:40:31.246Z,93755.31
2022-11-29T06:41:04.788Z,93754.64
2022-11-29T06:41:38.435Z,93755.78
2022-11-29T06:42:11.869Z,93753.30
2022-11-29T06:42:45.149Z,93751.80
2022-11-29T06:43:18.706Z,93752.77
2022-11-29T06:43:52.446Z,93754.77
2022-11-29T06:44:26.220Z,93749.71
2022-11-29T06:44:59.688Z,93755.11
2022-11-29T06:45:33.323Z,93758.07
2022-11-29T06:46:35.224Z,93755.52
2022-11-29T06:47:29.178Z,93759.91
2022-11-29T06:48:05.664Z,93755.67
2022-11-29T06:49:07.953Z,93757.98
2022-11-29T06:50:24.578Z,93759.55
2022-11-29T06:51:06.507Z,93758.62
2022-11-29T06:52:02.431Z,93759.74
2022-11-29T06:52:46.383Z,93761.58
2022-11-29T06:53:25.488Z,93762.70
2022-11-29T06:54:12.391Z,93764.66
2022-11-29T06:54:57.651Z,93765.66
2022-11-29T06:55:31.162Z,93765.54
2022-11-29T06:56:29.983Z,93766.17
2022-11-29T06:57:26.832Z,93761.98
2022-11-29T06:58:21.508Z,93766.29
2022-11-29T06:59:30.804Z,93767.23
2022-11-29T07:00:14.998Z,93767.85
2022-11-29T07:01:00.112Z,93765.92
2022-11-29T07:01:42.263Z,93769.80
2022-11-29T07:02:46.974Z,93771.73
2022-11-29T07:03:35.658Z,93767.80
2022-11-29T07:04:23.965Z,93773.72
2022-11-29T07:05:14.507Z,93768.73
2022-11-29T07:05:47.998Z,93771.84
2022-11-29T07:06:25.216Z,93773.88
2022-11-29T07:06:58.903Z,93771.60
2022-11-29T07:07:34.848Z,93771.45
2022-11-29T07:08:19.191Z,93772.42
2022-11-29T07:09:00.707Z,93771.95
2022-11-29T07:09:35.750Z,93770.08
2022-11-29T07:10:18.473Z,93770.79
2022-11-29T07:10:55.057Z,93772.50
2022-11-29T07:11:28.787Z,93773.63
2022-11-29T07:12:02.586Z,93769.05
2022-11-29T07:12:36.238Z,93772.84
2022-11-29T07:13:13.543Z,93775.40
2022-11-29T07:13:47.228Z,93769.53
2022-11-29T07:14:20.789Z,93774.31
2022-11-29T07:14:54.547Z,93772.64
2022-11-29T07:15:28.375Z,93771.99
2022-11-29T07:16:04.715Z,93775.30
2022-11-29T07:16:59.025Z,93775.73
2022-11-29T07:18:09.524Z,93773.98
2022-11-29T07:18:55.193Z,93776.76
2022-11-29T07:20:20.444Z,93777.78
2022-11-29T07:21:14.288Z,93774.70
2022-11-29T07:22:24.785Z,93771.40
2022-11-29T07:23:07.221Z,93774.95
2022-11-29T07:24:01.549Z,93773.31
2022-11-29T07:24:59.384Z,93775.23
2022-11-29T07:25:45.645Z,93774.52
2022-11-29T07:26:29.708Z,93776.03
2022-11-29T07:27:45.057Z,93773.61
2022-11-29T07:28:36.378Z,93771.29
2022-11-29T07:29:43.344Z,93778.19
2022-11-29T07:30:34.975Z,93775.78
2022-11-29T07:31:11.144Z,93778.17
2022-11-29T07:32:03.278Z,93776.43
2022-11-29T07:33:03.766Z,93776.48
2022-11-29T07:34:00.524Z,93775.40
2022-11-29T07:35:04.879Z,93774.43
2022-11-29T07:36:12.685Z,93776.30
2022-11-29T07:37:27.748Z,93775.91
2022-11-29T07:38:06.727Z,93775.99
2022-11-29T07:39:11.124Z,93775.48
2022-11-29T07:40:07.008Z,93775.66
2022-11-29T07:40:42.938Z,93774.30
2022-11-29T07:41:25.232Z,93774.80
2022-11-29T07:42:37.585Z,93776.31
2022-11-29T07:43:28.980Z,93775.67
2022-11-29T07:44:02.107Z,93781.63
2022-11-29T07:44:49.169Z,93780.70
2022-11-29T07:45:28.522Z,93776.39
2022-11-29T07:46:02.093Z,93780.54
2022-11-29T07:46:35.670Z,93777.59
2022-11-29T07:47:09.262Z,93780.34
2022-11-29T07:47:42.429Z,93780.23
2022-11-29T07:48:18.273Z,93784.86
2022-11-29T07:48:51.855Z,93775.91
2022-11-29T07:49:25.368Z,93780.61
2022-11-29T07:49:58.554Z,93777.06
2022-11-29T07:50:32.239Z,93783.59
2022-11-29T07:51:06.003Z,93783.02
2022-11-29T07:51:39.492Z,93781.73
2022-11-29T07:52:16.715Z,93777.58
2022-11-29T07:52:50.175Z,93783.25
2022-11-29T07:53:24.233Z,93778.86
2022-11-29T07:53:57.536Z,93783.38
2022-11-29T07:54:31.159Z,93779.11
2022-11-29T07:55:05.348Z,93779.77
2022-11-29T07:55:38.680Z,93778.17
2022-11-29T07:56:16.543Z,93785.57
2022-11-29T07:56:49.887Z,93784.02
2022-11-29T07:57:23.159Z,93783.46
2022-11-29T07:57:56.995Z,93783.08
2022-11-29T07:58:30.274Z,93785.20
2022-11-29T07:59:03.762Z,93785.48
2022-11-29T07:59:37.143Z,93785.88
2022-11-29T08:00:11.431Z,93783.97
2022-11-29T08:00:47.570Z,93785.48
2022-11-29T08:01:20.948Z,93785.32
2022-11-29T08:01:55.390Z,93783.53
2022-11-29T08:02:30.452Z,93788.27
2022-11-29T08:03:05.184Z,93785.20
2022-11-29T08:03:38.440Z,93788.54
2022-11-29T08:04:11.800Z,93787.77
2022-11-29T08:04:45.353Z,93790.54
2022-11-29T08:05:19.380Z,93791.90
2022-11-29T08:05:52.930Z,93788.67
2022-11-29T08:06:26.816Z,93789.87
2022-11-29T08:07:01.272Z,93785.69
2022-11-29T08:07:37.005Z,93789.65
2022-11-29T08:08:10.513Z,93788.78
2022-11-29T08:08:44.338Z,93788.70
2022-11-29T08:09:18.248Z,93792.90
2022-11-29T08:09:51.638Z,93792.71
2022-11-29T08:10:25.253Z,93788.91
2022-11-29T08:10:58.474Z,93792.05
2022-11-29T08:11:31.816Z,93790.21
2022-11-29T08:12:05.498Z,93793.09
2022-11-29T08:12:46.840Z,93792.29
2022-11-29T08:13:21.176Z,93789.72
2022-11-29T08:14:02.365Z,93790.00
2022-11-29T08:14:35.577Z,93793.76
2022-11-29T08:15:09.874Z,93792.20
2022-11-29T08:15:47.138Z,93791.03
2022-11-29T08:16:20.440Z,93793.98
2022-11-29T08:16:53.874Z,93793.60
2022-11-29T08:17:27.280Z,93794.08
2022-11-29T08:18:02.386Z,93789.52
2022-11-29T08:18:38.334Z,93792.66
2022-11-29T08:19:11.533Z,93792.00
2022-11-29T08:19:45.386Z,93793.12
2022-11-29T08:20:18.848Z,93788.43
2022-11-29T08:20:52.047Z,93791.98
2022-11-29T08:21:25.343Z,93793.62
2022-11-29T08:21:59.216Z,93790.82
2022-11-29T08:22:32.493Z,93788.66
2022-11-29T08:23:05.639Z,93791.38
2022-11-29T08:23:38.804Z,93791.92
2022-11-29T08:24:12.146Z,93789.02
2022-11-29T08:24:45.668Z,93792.13
2022-11-29T08:25:19.022Z,93793.00
2022-11-29T08:26:02.954Z,93792.09
2022-11-29T08:26:36.353Z,93790.85
2022-11-29T08:27:09.776Z,93798.77
2022-11-29T08:27:43.017Z,93792.13
2022-11-29T08:28:16.407Z,93797.46
2022-11-29T08:28:52.361Z,93795.11
2022-11-29T08:29:25.701Z,93793.11
2022-11-29T08:29:59.221Z,93795.08
2022-11-29T08:30:32.508Z,93793.95
2022-11-29T08:31:08.342Z,93796.51
2022-11-29T08:31:41.995Z,93797.75
2022-11-29T08:32:15.356Z,93795.50
2022-11-29T08:32:51.596Z,93795.84
2022-11-29T08:33:25.250Z,93795.16
2022-11-29T08:33:58.509Z,93793.40
2022-11-29T08:34:32.083Z,93792.23
2022-11-29T08:35:05.721Z,93796.39
2022-11-29T08:35:40.141Z,93795.09
2022-11-29T08:36:19.137Z,93797.44